Time;durP1;ratioP1;P1;durP2;ratioP2;P2;SDS_P1;SDS_P2;PMS_P1;PMS_P2;Temp;Humidity;BMP_temperature;BMP_pressure;BME280_temperature;BME280_humidity;BME280_pressure;Samples;Min_cycle;Max_cycle;Signal;HPM_P1;HPM_P2
2023/08/22 00:00:47;;;;;;;13.50;9.10;;;;;;;20.88;65.63;100980.12;110876;1261;22131;-79
2023/08/22 00:03:38;;;;;;;9.00;8.20;;;;;;;20.84;65.64;100981.32;110792;1261;22979;-78
2023/08/22 00:06:26;;;;;;;9.10;7.90;;;;;;;20.80;65.68;100980.15;110601;1261;21983;-78
2023/08/22 00:09:11;;;;;;;17.30;8.20;;;;;;;20.76;65.61;100978.30;110565;1256;22034;-78
2023/08/22 00:11:48;;;;;;;13.50;8.70;;;;;;;20.72;65.60;100975.77;110877;1256;23750;-79
2023/08/22 00:14:25;;;;;;;12.00;8.10;;;;;;;20.68;65.56;100971.45;110456;1264;21967;-77
2023/08/22 00:16:58;;;;;;;10.30;7.90;;;;;;;20.60;65.54;100965.27;110591;1263;22672;-78
2023/08/22 00:19:38;;;;;;;11.00;9.50;;;;;;;20.61;65.67;100968.73;110483;1264;22709;-78
2023/08/22 00:22:11;;;;;;;11.30;9.80;;;;;;;20.55;65.81;100968.11;110397;1263;21991;-79
2023/08/22 00:24:50;;;;;;;16.70;11.60;;;;;;;20.51;66.06;100967.11;110683;1263;22077;-78
2023/08/22 00:27:31;;;;;;;12.70;10.30;;;;;;;20.47;66.31;100967.23;110619;1263;21965;-78
2023/08/22 00:30:08;;;;;;;14.50;9.90;;;;;;;20.44;66.43;100965.12;110577;1263;21988;-78
2023/08/22 00:32:52;;;;;;;11.10;9.70;;;;;;;20.42;66.55;100962.80;111074;1256;23667;-78
2023/08/22 00:35:25;;;;;;;10.50;9.20;;;;;;;20.41;66.52;100962.50;111003;1256;22876;-80
2023/08/22 00:37:55;;;;;;;9.70;8.70;;;;;;;20.39;66.51;100961.91;110651;1263;22726;-77
2023/08/22 00:40:29;;;;;;;11.10;9.20;;;;;;;20.37;66.40;100956.11;109980;1267;23620;-79
2023/08/22 00:43:02;;;;;;;14.00;9.00;;;;;;;20.33;66.34;100954.73;110023;1267;21972;-79
2023/08/22 00:45:33;;;;;;;12.90;9.20;;;;;;;20.29;66.39;100954.64;110168;1267;21989;-78
2023/08/22 00:48:15;;;;;;;11.30;10.00;;;;;;;20.26;66.45;100951.55;110408;1267;21960;-79
2023/08/22 00:50:54;;;;;;;14.10;11.30;;;;;;;20.23;66.54;100954.24;110335;1267;23152;-78
2023/08/22 00:53:26;;;;;;;11.40;9.70;;;;;;;20.19;66.66;100954.30;109524;1272;22973;-78
2023/08/22 00:56:06;;;;;;;11.60;9.70;;;;;;;20.16;66.74;100957.67;109536;1268;22991;-78
2023/08/22 00:59:08;;;;;;;11.00;9.90;;;;;;;20.10;66.88;100956.48;109839;1268;23746;-78
2023/08/22 01:01:41;;;;;;;10.50;9.50;;;;;;;20.07;67.01;100956.35;110016;1268;21977;-78
2023/08/22 01:04:13;;;;;;;10.40;9.30;;;;;;;20.04;67.01;100957.48;110106;1267;21994;-79
2023/08/22 01:07:10;;;;;;;13.40;10.10;;;;;;;19.96;67.28;100947.38;110603;1264;23949;-78
2023/08/22 01:10:12;;;;;;;10.10;9.10;;;;;;;19.94;67.37;100951.05;110712;1263;21973;-78
2023/08/22 01:13:19;;;;;;;11.40;10.10;;;;;;;19.89;67.56;100949.98;111083;1256;22731;-78
2023/08/22 01:15:56;;;;;;;12.40;9.50;;;;;;;19.83;67.64;100950.20;111022;1256;21966;-78
2023/08/22 01:18:42;;;;;;;15.70;9.80;;;;;;;19.79;67.65;100950.30;111099;1256;22337;-78
2023/08/22 01:21:39;;;;;;;11.10;9.90;;;;;;;19.75;67.81;100949.70;111145;1257;23039;-78
2023/08/22 01:24:14;;;;;;;10.60;9.00;;;;;;;19.69;68.06;100949.91;111076;1257;21947;-78
2023/08/22 01:26:50;;;;;;;11.40;10.20;;;;;;;19.66;68.07;100951.14;110368;1265;21991;-76
2023/08/22 01:29:53;;;;;;;10.90;9.20;;;;;;;19.63;68.26;100951.69;110216;1265;21978;-80
2023/08/22 01:32:46;;;;;;;9.40;8.50;;;;;;;19.60;68.30;100949.41;110099;1265;24385;-79
2023/08/22 01:35:26;;;;;;;10.60;9.60;;;;;;;19.58;68.44;100951.84;110437;1265;22037;-79
2023/08/22 01:38:05;;;;;;;12.50;9.10;;;;;;;19.61;68.36;100951.65;110170;1265;22050;-79
2023/08/22 01:40:47;;;;;;;11.80;9.80;;;;;;;19.58;68.36;100950.05;110417;1265;21988;-79
2023/08/22 01:43:23;;;;;;;9.70;8.80;;;;;;;19.58;68.58;100947.41;110075;1267;21992;-77
2023/08/22 01:46:01;;;;;;;13.20;10.60;;;;;;;19.60;68.53;100944.47;109474;1268;21975;-77
2023/08/22 01:48:38;;;;;;;14.50;10.10;;;;;;;19.61;68.63;100940.70;110241;1268;21985;-80
2023/08/22 01:51:22;;;;;;;11.20;9.70;;;;;;;19.62;68.71;100939.41;109962;1268;21983;-78
2023/08/22 01:54:00;;;;;;;14.80;9.50;;;;;;;19.61;68.63;100944.05;109634;1268;23024;-77
2023/08/22 01:56:47;;;;;;;16.00;11.00;;;;;;;19.60;68.64;100946.05;109724;1268;22042;-79
2023/08/22 01:59:26;;;;;;;11.10;9.90;;;;;;;19.57;68.74;100941.48;109918;1266;23714;-79
2023/08/22 02:02:19;;;;;;;10.40;9.40;;;;;;;19.55;68.75;100936.66;110202;1262;23674;-78
2023/08/22 02:04:53;;;;;;;11.50;9.70;;;;;;;19.56;68.78;100941.39;111312;1256;23027;-78
2023/08/22 02:07:51;;;;;;;11.30;9.60;;;;;;;19.52;68.84;100935.45;111535;1251;21997;-78
2023/08/22 02:10:21;;;;;;;13.30;10.50;;;;;;;19.50;68.70;100931.71;111168;1256;22584;-78
2023/08/22 02:12:58;;;;;;;16.30;10.30;;;;;;;19.50;68.73;100931.04;110945;1257;23831;-79
2023/08/22 02:15:43;;;;;;;17.70;10.20;;;;;;;19.41;68.93;100929.64;111123;1256;21955;-79
2023/08/22 02:18:25;;;;;;;12.60;11.30;;;;;;;19.38;69.02;100930.22;111068;1256;23686;-78
2023/08/22 02:21:03;;;;;;;12.40;11.00;;;;;;;19.33;69.14;100936.70;111074;1256;21945;-79
2023/08/22 02:23:44;;;;;;;11.40;10.10;;;;;;;19.32;69.21;100937.84;111175;1256;23016;-77
2023/08/22 02:26:54;;;;;;;12.90;10.80;;;;;;;19.27;69.41;100942.58;111290;1256;21956;-77
2023/08/22 02:29:21;;;;;;;10.60;9.60;;;;;;;19.22;69.49;100943.97;110969;1256;23612;-78
2023/08/22 02:32:03;;;;;;;10.70;9.60;;;;;;;19.21;69.60;100948.24;110991;1256;21957;-78
2023/08/22 02:35:04;;;;;;;;;;;;;;;19.19;69.82;100949.23;110903;1256;22003;-78
2023/08/22 02:37:42;;;;;;;12.60;9.60;;;;;;;19.09;70.10;100943.01;110555;1262;21979;-78
2023/08/22 02:40:43;;;;;;;12.50;9.50;;;;;;;19.06;69.84;100941.08;110143;1267;21982;-79
2023/08/22 02:43:32;;;;;;;10.50;9.50;;;;;;;19.05;69.78;100939.39;109477;1273;21986;-81
2023/08/22 02:46:08;;;;;;;11.80;10.60;;;;;;;19.02;69.79;100938.66;109422;1272;23815;-79
2023/08/22 02:48:42;;;;;;;11.20;10.10;;;;;;;18.90;69.80;100920.73;109511;1273;22497;-78
2023/08/22 02:51:40;;;;;;;11.30;9.60;;;;;;;18.93;69.94;100935.03;108907;1278;24410;-78
2023/08/22 02:54:31;;;;;;;10.60;9.20;;;;;;;18.98;69.84;100950.42;109192;1278;22019;-79
2023/08/22 02:57:41;;;;;;;;;;;;;;;;;;;;;
2023/08/22 03:00:22;;;;;;;12.80;10.00;;;;;;;18.94;70.08;100937.45;109311;1275;22009;-78
2023/08/22 03:03:03;;;;;;;13.70;10.50;;;;;;;18.94;70.29;100930.91;110012;1269;22324;-78
2023/08/22 03:05:46;;;;;;;16.80;11.00;;;;;;;18.96;70.48;100928.30;109693;1269;22100;-78
2023/08/22 03:08:32;;;;;;;18.70;11.00;;;;;;;18.97;70.50;100922.60;109770;1268;23504;-79
2023/08/22 03:11:20;;;;;;;;;;;;;;;;;;;;;
2023/08/22 03:14:16;;;;;;;15.00;10.50;;;;;;;18.95;70.46;100916.43;109376;1273;21984;-78
2023/08/22 03:17:09;;;;;;;14.80;10.50;;;;;;;18.92;70.37;100914.30;109216;1273;22077;-78
2023/08/22 03:19:53;;;;;;;19.10;11.10;;;;;;;18.90;70.32;100911.08;109596;1272;21979;-78
2023/08/22 03:22:42;;;;;;;17.60;10.50;;;;;;;18.87;70.44;100903.14;109503;1272;22990;-78
2023/08/22 03:25:33;;;;;;;13.60;10.10;;;;;;;18.86;70.59;100896.83;109257;1272;21986;-78
2023/08/22 03:28:19;;;;;;;23.40;11.10;;;;;;;18.86;70.62;100896.52;109368;1272;23633;-77
2023/08/22 03:31:11;;;;;;;18.40;9.60;;;;;;;18.84;70.53;100899.30;109744;1268;21958;-79
2023/08/22 03:34:09;;;;;;;15.80;9.80;;;;;;;18.83;70.45;100904.66;110005;1261;22975;-78
2023/08/22 03:37:16;;;;;;;38.70;11.60;;;;;;;18.76;70.43;100910.15;109337;1269;23797;-77
2023/08/22 03:39:57;;;;;;;22.00;10.50;;;;;;;18.71;70.41;100911.20;109776;1269;21982;-78
2023/08/22 03:42:53;;;;;;;18.30;10.50;;;;;;;18.71;70.55;100917.50;109201;1273;21992;-78
2023/08/22 03:45:43;;;;;;;24.50;11.00;;;;;;;18.70;70.67;100913.20;109227;1268;23740;-78
2023/08/22 03:48:14;;;;;;;13.40;9.30;;;;;;;18.70;70.64;100914.09;109355;1272;21998;-79
2023/08/22 03:50:49;;;;;;;12.80;9.10;;;;;;;18.70;70.54;100916.35;109653;1272;23045;-79
2023/08/22 03:53:33;;;;;;;13.70;9.10;;;;;;;18.69;70.56;100921.14;109640;1271;21990;-79
2023/08/22 03:56:06;;;;;;;13.80;8.90;;;;;;;18.67;70.57;100920.92;109987;1266;21977;-79
2023/08/22 03:58:55;;;;;;;12.60;9.90;;;;;;;18.66;70.39;100919.08;110335;1266;21988;-78
2023/08/22 04:01:42;;;;;;;19.90;9.00;;;;;;;18.66;70.65;100917.64;110336;1261;23629;-79
2023/08/22 04:04:21;;;;;;;13.90;8.80;;;;;;;18.68;70.71;100914.54;109548;1267;22419;-77
2023/08/22 04:06:57;;;;;;;14.80;13.30;;;;;;;18.69;70.72;100910.95;110390;1262;22107;-79
2023/08/22 04:09:29;;;;;;;13.50;12.10;;;;;;;18.71;70.57;100905.20;110387;1262;23629;-81
2023/08/22 04:12:00;;;;;;;11.80;9.30;;;;;;;18.65;70.34;100889.14;110844;1261;23615;-79
2023/08/22 04:14:44;;;;;;;12.10;9.70;;;;;;;18.73;70.37;100901.50;110110;1268;24050;-79
2023/08/22 04:17:29;;;;;;;14.60;9.00;;;;;;;18.75;70.28;100899.27;109618;1271;22305;-79
2023/08/22 04:20:11;;;;;;;15.50;9.10;;;;;;;18.79;70.23;100903.27;108971;1274;22264;-78
2023/08/22 04:22:50;;;;;;;13.40;9.00;;;;;;;18.85;70.18;100905.02;109267;1273;22102;-78
2023/08/22 04:25:26;;;;;;;13.90;9.10;;;;;;;18.90;69.88;100900.29;109483;1262;21976;-79
2023/08/22 04:28:02;;;;;;;15.30;8.60;;;;;;;18.88;69.77;100891.40;109077;1273;23739;-80
2023/08/22 04:31:04;;;;;;;16.80;9.10;;;;;;;18.98;69.69;100901.02;109155;1273;22757;-78
2023/08/22 04:33:49;;;;;;;11.50;7.90;;;;;;;19.02;69.60;100894.08;109736;1267;22317;-79
2023/08/22 04:36:30;;;;;;;13.40;7.90;;;;;;;19.10;69.31;100891.99;110412;1261;21970;-78
2023/08/22 04:39:13;;;;;;;13.70;7.40;;;;;;;19.11;69.22;100895.63;110658;1256;23583;-79
2023/08/22 04:41:59;;;;;;;11.30;6.40;;;;;;;19.12;68.86;100896.77;110846;1256;21950;-77
2023/08/22 04:44:38;;;;;;;9.60;6.00;;;;;;;19.15;68.53;100909.46;110800;1257;22026;-79
2023/08/22 04:47:08;;;;;;;13.60;6.20;;;;;;;19.20;68.32;100914.83;110382;1262;22064;-81
2023/08/22 04:49:52;;;;;;;12.30;6.40;;;;;;;19.24;68.21;100916.44;110780;1262;22426;-79
2023/08/22 04:52:32;;;;;;;11.90;5.80;;;;;;;19.33;68.02;100921.02;109900;1267;22035;-78
2023/08/22 04:55:07;;;;;;;16.30;7.20;;;;;;;19.44;67.95;100927.86;109637;1273;21997;-79
2023/08/22 04:57:37;;;;;;;13.90;6.60;;;;;;;19.54;67.54;100929.32;109570;1272;23643;-80
2023/08/22 05:00:20;;;;;;;14.50;6.50;;;;;;;19.61;66.99;100937.85;109436;1273;21973;-80
2023/08/22 05:03:02;;;;;;;16.30;8.90;;;;;;;19.66;66.56;100938.60;109488;1273;22005;-80
2023/08/22 05:05:55;;;;;;;11.30;6.20;;;;;;;19.72;66.26;100927.98;109097;1273;21988;-79
2023/08/22 05:08:36;;;;;;;16.20;6.40;;;;;;;19.76;65.88;100921.38;109160;1271;21969;-78
2023/08/22 05:11:22;;;;;;;11.30;5.90;;;;;;;19.77;65.67;100913.70;109289;1273;22338;-75
2023/08/22 05:14:07;;;;;;;20.50;6.10;;;;;;;19.82;65.52;100908.61;109498;1268;23075;-75
2023/08/22 05:16:44;;;;;;;8.60;5.30;;;;;;;19.85;65.17;100902.55;109757;1268;22841;-75
2023/08/22 05:19:22;;;;;;;18.00;6.40;;;;;;;19.89;64.93;100906.52;109419;1268;21983;-77
2023/08/22 05:22:03;;;;;;;12.70;5.00;;;;;;;19.96;64.77;100915.27;109223;1273;21987;-75
2023/08/22 05:24:40;;;;;;;16.90;5.40;;;;;;;20.01;64.43;100918.30;109303;1269;22043;-74
2023/08/22 05:27:34;;;;;;;14.90;4.90;;;;;;;20.08;64.23;100917.27;110011;1263;23724;-76
2023/08/22 05:30:24;;;;;;;7.30;4.00;;;;;;;20.17;63.92;100919.63;110380;1263;23602;-76
2023/08/22 05:33:09;;;;;;;18.10;5.90;;;;;;;20.25;63.34;100924.55;110114;1262;21993;-79
2023/08/22 05:35:58;;;;;;;11.50;4.40;;;;;;;20.37;63.28;100930.08;110505;1263;21996;-79
2023/08/22 05:38:52;;;;;;;7.40;4.50;;;;;;;20.54;62.92;100934.18;110417;1263;23105;-77
2023/08/22 05:41:32;;;;;;;13.30;5.80;;;;;;;20.64;62.12;100934.58;109797;1269;23699;-77
2023/08/22 05:44:20;;;;;;;11.20;5.30;;;;;;;20.68;61.68;100938.54;109209;1270;23081;-78
2023/08/22 05:47:06;;;;;;;;;;;;;;;20.76;61.65;100941.71;109480;1268;22420;-78
2023/08/22 05:49:52;;;;;;;16.70;5.60;;;;;;;20.81;61.94;100944.54;109756;1268;21979;-77
2023/08/22 05:52:42;;;;;;;13.30;5.40;;;;;;;21.02;61.98;100947.45;109981;1268;23596;-78
2023/08/22 05:55:24;;;;;;;12.80;4.60;;;;;;;21.30;61.56;100955.13;109805;1268;23730;-78
2023/08/22 05:58:19;;;;;;;16.60;5.70;;;;;;;21.49;60.32;100953.63;110147;1268;23066;-77
2023/08/22 06:01:34;;;;;;;17.10;4.40;;;;;;;21.55;59.25;100949.63;110667;1260;23453;-78
2023/08/22 06:04:37;;;;;;;9.70;4.70;;;;;;;21.54;58.87;100936.39;111008;1254;21987;-78
2023/08/22 06:07:38;;;;;;;8.80;5.20;;;;;;;21.51;58.58;100922.65;111062;1255;24287;-78
2023/08/22 06:10:23;;;;;;;9.10;5.20;;;;;;;21.46;58.63;100921.58;111164;1244;23711;-79
2023/08/22 06:13:06;;;;;;;11.30;4.90;;;;;;;21.49;59.06;100922.11;111124;1255;22001;-79
2023/08/22 06:15:48;;;;;;;12.60;4.70;;;;;;;21.68;59.68;100926.32;111119;1255;22019;-79
2023/08/22 06:18:59;;;;;;;8.10;3.80;;;;;;;22.00;59.64;100926.73;111126;1255;21966;-78
2023/08/22 06:21:54;;;;;;;12.80;4.30;;;;;;;22.40;59.17;100924.02;111021;1255;21971;-80
2023/08/22 06:25:29;;;;;;;12.80;4.80;;;;;;;22.87;58.10;100923.85;111129;1258;23637;-81
2023/08/22 06:29:21;;;;;;;;;;;;;;;;;;;;;
2023/08/22 06:32:35;;;;;;;12.10;5.20;;;;;;;23.23;54.57;100920.77;111142;1258;21978;-85
2023/08/22 06:35:47;;;;;;;11.90;5.00;;;;;;;23.39;55.09;100917.00;110662;1263;23142;-82
2023/08/22 06:38:40;;;;;;;10.80;5.20;;;;;;;23.86;55.71;100919.29;110853;1264;21987;-83
2023/08/22 06:41:47;;;;;;;15.60;6.00;;;;;;;24.25;54.40;100921.14;110778;1261;22040;-83
2023/08/22 06:44:42;;;;;;;9.00;5.50;;;;;;;24.68;53.14;100923.81;110732;1250;23049;-83
2023/08/22 06:47:41;;;;;;;10.20;5.10;;;;;;;24.96;52.03;100921.30;110699;1263;23741;-82
2023/08/22 06:50:45;;;;;;;9.40;6.40;;;;;;;25.08;50.70;100914.05;110334;1264;24523;-83
2023/08/22 06:53:55;;;;;;;8.60;5.80;;;;;;;25.12;50.45;100916.99;110628;1264;22660;-82
2023/08/22 06:56:41;;;;;;;13.30;5.70;;;;;;;25.41;51.04;100913.72;109990;1265;22329;-83
2023/08/22 07:00:24;;;;;;;11.80;4.80;;;;;;;25.62;49.38;100909.30;110371;1265;21968;-85
2023/08/22 07:03:42;;;;;;;9.90;4.80;;;;;;;25.59;48.10;100906.58;110495;1259;23843;-83
2023/08/22 07:06:50;;;;;;;9.40;5.10;;;;;;;25.39;48.26;100905.31;110692;1265;23674;-79
2023/08/22 07:09:29;;;;;;;10.20;5.30;;;;;;;25.53;48.78;100904.11;110201;1269;22005;-80
2023/08/22 07:12:19;;;;;;;12.80;5.80;;;;;;;25.82;48.75;100902.59;109996;1269;21977;-79
2023/08/22 07:15:18;;;;;;;15.30;6.00;;;;;;;26.15;48.53;100898.62;110161;1263;21992;-79
2023/08/22 07:18:01;;;;;;;9.40;5.00;;;;;;;26.40;47.25;100893.73;110886;1251;23097;-78
2023/08/22 07:20:45;;;;;;;13.80;5.40;;;;;;;26.55;46.43;100894.19;110699;1263;22015;-78
2023/08/22 07:23:20;;;;;;;11.10;4.70;;;;;;;26.78;47.15;100888.38;110570;1263;21969;-80
2023/08/22 07:25:59;;;;;;;8.30;4.20;;;;;;;27.05;45.67;100884.96;110176;1268;21974;-79
2023/08/22 07:28:44;;;;;;;15.70;4.40;;;;;;;27.00;43.88;100883.45;110394;1262;21953;-79
2023/08/22 07:31:33;;;;;;;;;;;;;;;;;;;;;
2023/08/22 07:34:35;;;;;;;;;;;;;;;;;;;;;
2023/08/22 07:37:26;;;;;;;7.40;2.60;;;;;;;27.63;43.19;100888.44;109666;1271;21983;-78
2023/08/22 07:40:08;;;;;;;9.40;2.80;;;;;;;27.75;40.38;100889.22;109360;1275;23805;-79
2023/08/22 07:43:01;;;;;;;4.80;3.20;;;;;;;27.79;40.27;100882.38;109234;1274;22194;-79
2023/08/22 07:46:13;;;;;;;8.80;3.50;;;;;;;27.93;40.39;100883.66;109355;1275;24317;-81
2023/08/22 07:48:50;;;;;;;5.50;1.80;;;;;;;28.37;40.40;100886.78;109466;1270;21954;-78
2023/08/22 07:51:32;;;;;;;7.10;2.80;;;;;;;28.56;37.84;100879.96;109237;1268;24671;-80
2023/08/22 07:54:17;;;;;;;8.80;2.80;;;;;;;28.42;37.29;100878.04;110086;1268;21966;-79
2023/08/22 07:57:12;;;;;;;6.30;2.20;;;;;;;28.48;38.04;100886.16;109722;1270;21994;-82
2023/08/22 08:00:10;;;;;;;5.40;2.50;;;;;;;28.50;37.76;100882.40;109747;1270;21995;-80
2023/08/22 08:03:04;;;;;;;8.60;2.50;;;;;;;28.66;38.16;100874.66;109739;1270;21960;-80
2023/08/22 08:05:54;;;;;;;7.70;2.20;;;;;;;28.95;38.06;100868.28;109743;1270;21972;-82
2023/08/22 08:08:47;;;;;;;8.00;2.00;;;;;;;29.28;37.37;100873.17;109286;1270;22030;-79
2023/08/22 08:11:23;;;;;;;7.80;2.30;;;;;;;29.44;36.90;100879.56;109719;1270;21981;-78
2023/08/22 08:13:59;;;;;;;8.90;2.40;;;;;;;29.51;36.68;100877.82;109586;1270;23717;-77
2023/08/22 08:16:28;;;;;;;4.80;2.70;;;;;;;29.51;36.02;100873.74;109942;1268;21991;-79
2023/08/22 08:19:12;;;;;;;9.20;3.20;;;;;;;29.55;36.29;100874.55;110590;1263;22010;-78
2023/08/22 08:22:03;;;;;;;5.10;1.60;;;;;;;29.68;36.34;100874.52;110287;1263;22049;-78
2023/08/22 08:24:47;;;;;;;7.10;2.00;;;;;;;29.87;35.82;100875.69;110063;1268;21970;-79
2023/08/22 08:27:32;;;;;;;6.40;2.30;;;;;;;29.94;34.61;100876.13;110320;1263;21976;-81
2023/08/22 08:30:18;;;;;;;7.70;2.80;;;;;;;29.83;34.26;100872.35;110615;1263;23623;-79
2023/08/22 08:33:06;;;;;;;7.80;2.30;;;;;;;29.73;34.56;100872.92;110770;1263;22036;-78
2023/08/22 08:35:55;;;;;;;7.20;2.00;;;;;;;29.75;34.60;100870.02;110709;1263;21987;-79
2023/08/22 08:38:32;;;;;;;9.30;2.10;;;;;;;29.84;34.54;100871.14;110245;1268;23878;-78
2023/08/22 08:41:26;;;;;;;6.10;2.10;;;;;;;29.91;34.50;100870.92;109895;1268;22924;-80
2023/08/22 08:44:08;;;;;;;4.50;1.90;;;;;;;29.75;34.19;100868.95;110791;1263;21982;-79
2023/08/22 08:46:39;;;;;;;4.80;2.00;;;;;;;29.80;34.96;100869.59;110351;1263;21995;-80
2023/08/22 08:49:29;;;;;;;4.60;2.10;;;;;;;29.98;34.64;100867.30;110448;1260;21967;-79
2023/08/22 08:52:17;;;;;;;5.60;1.90;;;;;;;30.17;34.87;100864.79;110296;1262;257165;-80
2023/08/22 08:54:53;;;;;;;4.20;2.00;;;;;;;30.49;34.63;100866.63;109863;1268;22725;-78
2023/08/22 08:57:44;;;;;;;5.50;1.90;;;;;;;30.61;33.88;100863.61;110750;1263;22969;-81
2023/08/22 09:00:50;;;;;;;3.10;2.00;;;;;;;30.46;33.28;100859.55;110699;1263;22031;-80
2023/08/22 09:03:37;;;;;;;3.40;1.80;;;;;;;30.28;33.62;100851.98;110792;1263;21981;-81
2023/08/22 09:06:56;;;;;;;4.60;1.70;;;;;;;30.26;34.13;100851.15;110756;1263;21982;-80
2023/08/22 09:09:38;;;;;;;11.30;2.00;;;;;;;30.47;34.01;100842.36;110752;1263;22180;-80
2023/08/22 09:12:29;;;;;;;;;;;;;;;;;;;;;
2023/08/22 09:15:33;;;;;;;4.50;1.80;;;;;;;30.83;33.39;100834.67;110691;1257;21966;-80
2023/08/22 09:18:26;;;;;;;4.30;1.90;;;;;;;30.97;32.93;100836.05;110733;1263;21964;-81
2023/08/22 09:21:56;;;;;;;5.50;1.90;;;;;;;30.95;32.75;100833.30;110819;1263;21974;-81
2023/08/22 09:24:58;;;;;;;5.30;1.80;;;;;;;30.96;32.86;100827.02;110529;1267;22459;-81
2023/08/22 09:28:14;;;;;;;6.60;2.40;;;;;;;31.19;32.95;100827.67;110049;1268;23418;-80
2023/08/22 09:34:35;;;;;;;4.50;1.70;;;;;;;31.77;32.39;100829.44;109747;1270;21971;-79
2023/08/22 09:37:41;;;;;;;5.80;1.60;;;;;;;31.83;31.80;100827.56;109605;1270;23589;-79
2023/08/22 09:40:27;;;;;;;4.40;1.70;;;;;;;31.91;31.57;100825.23;109912;1270;21991;-80
2023/08/22 09:43:15;;;;;;;3.50;1.60;;;;;;;31.96;31.33;100823.39;109921;1269;22471;-81
2023/08/22 09:47:15;;;;;;;8.10;1.80;;;;;;;32.08;31.65;100818.39;109831;1269;22332;-79
2023/08/22 09:50:02;;;;;;;8.70;3.00;;;;;;;32.38;32.06;100810.19;110148;1268;21971;-81
2023/08/22 09:52:38;;;;;;;13.60;3.30;;;;;;;32.67;31.40;100818.58;109474;1272;22756;-77
2023/08/22 09:55:15;;;;;;;7.00;1.90;;;;;;;32.65;31.20;100820.86;109322;1272;23095;-78
2023/08/22 09:57:53;;;;;;;6.40;2.00;;;;;;;32.45;30.97;100816.75;109385;1272;21986;-78
2023/08/22 10:00:36;;;;;;;9.40;2.10;;;;;;;32.37;31.49;100814.29;109514;1264;21979;-77
2023/08/22 10:03:17;;;;;;;8.20;2.20;;;;;;;32.55;31.64;100813.81;109582;1269;23731;-78
2023/08/22 10:06:01;;;;;;;8.80;2.10;;;;;;;32.65;31.36;100807.52;109695;1269;21927;-78
2023/08/22 10:08:49;;;;;;;8.50;1.80;;;;;;;32.69;31.24;100806.44;109603;1269;24306;-76
2023/08/22 10:11:32;;;;;;;7.00;2.40;;;;;;;32.83;31.21;100806.54;110013;1265;21967;-77
2023/08/22 10:14:44;;;;;;;7.00;2.40;;;;;;;32.98;31.23;100806.52;110364;1265;22207;-77
2023/08/22 10:18:06;;;;;;;;;;;;;;;;;;;;;
2023/08/22 10:20:56;;;;;;;5.40;2.00;;;;;;;32.45;30.73;100790.19;110603;1257;23602;-79
2023/08/22 10:24:29;;;;;;;9.50;2.70;;;;;;;32.34;31.44;100785.16;111086;1257;21924;-77
2023/08/22 10:27:21;;;;;;;8.10;1.80;;;;;;;32.46;31.44;100780.05;111108;1257;21968;-79
2023/08/22 10:30:33;;;;;;;6.80;2.30;;;;;;;32.69;31.20;100776.86;110458;1260;21973;-78
2023/08/22 10:33:09;;;;;;;9.70;2.50;;;;;;;32.77;30.87;100778.70;110119;1265;21998;-78
2023/08/22 10:36:17;;;;;;;4.70;1.60;;;;;;;32.54;30.84;100776.20;110390;1265;22107;-81
2023/08/22 10:38:57;;;;;;;4.20;2.10;;;;;;;32.36;31.28;100771.89;110483;1265;22438;-79
2023/08/22 10:42:00;;;;;;;9.30;2.40;;;;;;;32.24;31.36;100773.29;110269;1265;23625;-78
2023/08/22 10:44:51;;;;;;;6.00;2.20;;;;;;;32.11;31.45;100772.71;109658;1270;23669;-79
2023/08/22 10:47:42;;;;;;;3.30;1.80;;;;;;;31.94;31.93;100769.70;109833;1270;22991;-78
2023/08/22 10:50:34;;;;;;;2.30;1.40;;;;;;;31.69;31.99;100768.80;109463;1271;21976;-79
2023/08/22 10:53:30;;;;;;;4.30;2.30;;;;;;;31.49;32.75;100769.14;109315;1272;23741;-80
2023/08/22 10:56:23;;;;;;;7.20;2.40;;;;;;;31.39;32.78;100767.63;109518;1272;21985;-79
2023/08/22 10:59:03;;;;;;;5.90;2.20;;;;;;;31.16;33.45;100765.86;109329;1272;22219;-77
2023/08/22 11:01:41;;;;;;;6.10;2.30;;;;;;;31.05;33.72;100763.65;109316;1272;22731;-77
2023/08/22 11:04:15;;;;;;;6.60;2.70;;;;;;;31.00;34.24;100756.89;109471;1272;21997;-79
2023/08/22 11:07:10;;;;;;;8.60;3.20;;;;;;;31.06;34.61;100751.23;109642;1266;21981;-78
2023/08/22 11:10:07;;;;;;;4.20;2.30;;;;;;;31.08;34.30;100745.59;110650;1258;21958;-77
2023/08/22 11:12:49;;;;;;;15.60;3.80;;;;;;;31.01;34.48;100742.05;110960;1258;21958;-78
2023/08/22 11:15:29;;;;;;;7.70;2.40;;;;;;;30.80;34.51;100731.16;110931;1258;22102;-79
2023/08/22 11:18:06;;;;;;;4.00;2.30;;;;;;;30.71;34.98;100730.45;110791;1258;24290;-78
2023/08/22 11:20:42;;;;;;;6.40;2.60;;;;;;;30.50;34.75;100730.88;110720;1258;22020;-77
2023/08/22 11:23:23;;;;;;;10.00;2.70;;;;;;;30.34;35.93;100726.92;110870;1258;21972;-79
2023/08/22 11:26:14;;;;;;;5.60;2.40;;;;;;;30.29;36.16;100727.69;110757;1258;22014;-77
2023/08/22 11:28:49;;;;;;;4.80;2.80;;;;;;;30.23;36.18;100722.65;110060;1262;22065;-77
2023/08/22 11:31:37;;;;;;;7.20;2.70;;;;;;;30.09;36.43;100716.86;110122;1266;22665;-77
2023/08/22 11:34:24;;;;;;;4.60;2.50;;;;;;;29.93;36.50;100714.80;110211;1260;21981;-77
2023/08/22 11:37:19;;;;;;;4.10;2.70;;;;;;;29.81;36.85;100719.05;110010;1266;21970;-78
2023/08/22 11:40:14;;;;;;;5.40;2.70;;;;;;;29.74;36.93;100717.00;110167;1266;21994;-77
2023/08/22 11:43:02;;;;;;;8.00;2.50;;;;;;;29.58;36.72;100715.83;110133;1266;21977;-77
2023/08/22 11:45:59;;;;;;;9.60;2.70;;;;;;;29.47;37.32;100711.33;109436;1271;23602;-77
2023/08/22 11:49:29;;;;;;;7.60;2.80;;;;;;;29.38;37.85;100705.17;110403;1268;23032;-75
2023/08/22 11:52:01;;;;;;;3.80;2.30;;;;;;;29.28;37.65;100704.39;110175;1267;21985;-77
2023/08/22 11:54:49;;;;;;;6.30;3.00;;;;;;;29.15;37.86;100705.23;110120;1268;23827;-76
2023/08/22 11:57:52;;;;;;;5.00;2.80;;;;;;;29.14;38.01;100697.62;109810;1268;23605;-78
2023/08/22 12:00:36;;;;;;;10.60;2.80;;;;;;;29.12;38.19;100692.48;109940;1268;21988;-78
2023/08/22 12:03:21;;;;;;;6.40;3.10;;;;;;;29.10;38.23;100690.16;109529;1268;21974;-78
2023/08/22 12:06:10;;;;;;;5.90;2.40;;;;;;;29.04;38.44;100680.90;109345;1274;22371;-79
2023/08/22 12:09:00;;;;;;;5.10;2.90;;;;;;;29.14;38.74;100689.40;109309;1270;22075;-78
2023/08/22 12:11:32;;;;;;;4.20;2.50;;;;;;;29.22;38.40;100694.99;109162;1274;22073;-78
2023/08/22 12:14:10;;;;;;;6.40;2.50;;;;;;;29.21;38.22;100685.25;109172;1274;21992;-77
2023/08/22 12:16:44;;;;;;;5.20;2.80;;;;;;;29.25;38.63;100682.99;109715;1277;22004;-78
2023/08/22 12:19:51;;;;;;;4.90;2.90;;;;;;;29.28;38.62;100672.17;108837;1277;23058;-78
2023/08/22 12:22:48;;;;;;;8.60;2.90;;;;;;;29.46;38.55;100680.60;108761;1278;22098;-80
2023/08/22 12:25:38;;;;;;;6.10;2.30;;;;;;;29.57;38.20;100676.16;109378;1274;21981;-81
2023/08/22 12:28:24;;;;;;;6.30;2.90;;;;;;;29.61;37.94;100670.36;109482;1274;21989;-80
2023/08/22 12:31:01;;;;;;;2.80;2.20;;;;;;;29.68;38.01;100663.16;109086;1274;23048;-80
2023/08/22 12:33:45;;;;;;;4.30;2.50;;;;;;;29.78;38.16;100662.77;108589;1279;22452;-79
2023/08/22 12:36:30;;;;;;;4.40;3.40;;;;;;;29.85;37.67;100660.86;108793;1280;21999;-83
2023/08/22 12:39:32;;;;;;;4.80;3.20;;;;;;;29.76;37.22;100661.55;109033;1280;22006;-83
2023/08/22 12:42:09;;;;;;;4.30;2.60;;;;;;;29.69;37.52;100658.66;109287;1276;21988;-82
2023/08/22 12:44:53;;;;;;;4.30;2.90;;;;;;;29.74;37.40;100660.06;109458;1276;21984;-82
2023/08/22 12:47:57;;;;;;;12.40;3.10;;;;;;;29.82;37.76;100652.00;109133;1277;22033;-80
2023/08/22 12:50:39;;;;;;;9.50;2.90;;;;;;;29.91;37.51;100653.70;109218;1277;22009;-80
2023/08/22 12:53:44;;;;;;;6.20;3.80;;;;;;;29.97;37.26;100647.36;109640;1271;21998;-83
2023/08/22 12:57:40;;;;;;;;;;;;;;;;;;;;;
2023/08/22 13:01:25;;;;;;;;;;;;;;;;;;;;;
2023/08/22 13:04:32;;;;;;;4.40;2.60;;;;;;;30.08;36.79;100633.27;109897;1268;21999;-83
2023/08/22 13:07:32;;;;;;;7.10;3.40;;;;;;;30.10;36.64;100632.33;109230;1273;22042;-81